sensor_id;sensor_type;location;lat;lon;timestamp;P1;durP1;ratioP1;P2;durP2;ratioP2
27533;SDS011;14973;51.460;7.008;2023-07-29T00:00:45;4.95;;;3.50;;
27533;SDS011;14973;51.460;7.008;2023-07-29T00:03:11;3.80;;;3.20;;
27533;SDS011;14973;51.460;7.008;2023-07-29T00:05:37;6.03;;;3.30;;
27533;SDS011;14973;51.460;7.008;2023-07-29T00:08:02;5.93;;;3.35;;
27533;SDS011;14973;51.460;7.008;2023-07-29T00:10:28;8.90;;;4.15;;
27533;SDS011;14973;51.460;7.008;2023-07-29T00:12:56;6.43;;;3.95;;
27533;SDS011;14973;51.460;7.008;2023-07-29T00:15:21;7.85;;;4.00;;
27533;SDS011;14973;51.460;7.008;2023-07-29T00:17:47;7.28;;;4.13;;
27533;SDS011;14973;51.460;7.008;2023-07-29T00:20:12;5.57;;;3.65;;
27533;SDS011;14973;51.460;7.008;2023-07-29T00:22:38;6.15;;;3.60;;
27533;SDS011;14973;51.460;7.008;2023-07-29T00:25:03;10.05;;;3.80;;
27533;SDS011;14973;51.460;7.008;2023-07-29T00:27:29;5.15;;;4.25;;
27533;SDS011;14973;51.460;7.008;2023-07-29T00:29:55;12.43;;;4.00;;
27533;SDS011;14973;51.460;7.008;2023-07-29T00:32:20;9.10;;;3.80;;
27533;SDS011;14973;51.460;7.008;2023-07-29T00:34:46;6.60;;;3.83;;
27533;SDS011;14973;51.460;7.008;2023-07-29T00:37:11;5.78;;;4.10;;
27533;SDS011;14973;51.460;7.008;2023-07-29T00:39:37;5.50;;;3.83;;
27533;SDS011;14973;51.460;7.008;2023-07-29T00:42:03;7.75;;;3.90;;
27533;SDS011;14973;51.460;7.008;2023-07-29T00:44:29;6.10;;;3.75;;
27533;SDS011;14973;51.460;7.008;2023-07-29T00:46:56;6.72;;;4.00;;
27533;SDS011;14973;51.460;7.008;2023-07-29T00:49:23;7.47;;;3.92;;
27533;SDS011;14973;51.460;7.008;2023-07-29T00:51:49;6.90;;;4.47;;
27533;SDS011;14973;51.460;7.008;2023-07-29T00:54:15;4.70;;;3.72;;
27533;SDS011;14973;51.460;7.008;2023-07-29T00:56:40;7.28;;;4.28;;
27533;SDS011;14973;51.460;7.008;2023-07-29T00:59:06;7.60;;;3.55;;
27533;SDS011;14973;51.460;7.008;2023-07-29T01:01:32;8.52;;;4.25;;
27533;SDS011;14973;51.460;7.008;2023-07-29T01:03:58;9.55;;;3.88;;
27533;SDS011;14973;51.460;7.008;2023-07-29T01:09:31;6.90;;;4.18;;
27533;SDS011;14973;51.460;7.008;2023-07-29T01:12:22;6.78;;;4.00;;
27533;SDS011;14973;51.460;7.008;2023-07-29T01:15:22;5.00;;;4.30;;
27533;SDS011;14973;51.460;7.008;2023-07-29T01:17:56;10.57;;;4.50;;
27533;SDS011;14973;51.460;7.008;2023-07-29T01:20:29;7.38;;;4.13;;
27533;SDS011;14973;51.460;7.008;2023-07-29T01:22:58;11.38;;;4.32;;
27533;SDS011;14973;51.460;7.008;2023-07-29T01:25:24;8.05;;;4.35;;
27533;SDS011;14973;51.460;7.008;2023-07-29T01:27:50;11.68;;;4.28;;
27533;SDS011;14973;51.460;7.008;2023-07-29T01:30:16;6.53;;;4.18;;
27533;SDS011;14973;51.460;7.008;2023-07-29T01:35:28;6.30;;;4.38;;
27533;SDS011;14973;51.460;7.008;2023-07-29T01:38:09;6.28;;;4.32;;
27533;SDS011;14973;51.460;7.008;2023-07-29T01:40:44;6.60;;;4.03;;
27533;SDS011;14973;51.460;7.008;2023-07-29T01:43:13;5.70;;;4.30;;
27533;SDS011;14973;51.460;7.008;2023-07-29T01:45:38;4.40;;;3.47;;
27533;SDS011;14973;51.460;7.008;2023-07-29T01:48:05;4.72;;;3.63;;
27533;SDS011;14973;51.460;7.008;2023-07-29T01:50:31;3.72;;;3.13;;
27533;SDS011;14973;51.460;7.008;2023-07-29T01:52:59;6.75;;;3.10;;
27533;SDS011;14973;51.460;7.008;2023-07-29T01:55:25;4.75;;;3.33;;
27533;SDS011;14973;51.460;7.008;2023-07-29T01:57:51;3.95;;;3.55;;
27533;SDS011;14973;51.460;7.008;2023-07-29T02:00:17;10.07;;;3.22;;
27533;SDS011;14973;51.460;7.008;2023-07-29T02:02:43;3.85;;;3.10;;
27533;SDS011;14973;51.460;7.008;2023-07-29T02:05:08;8.88;;;2.88;;
27533;SDS011;14973;51.460;7.008;2023-07-29T02:07:34;4.63;;;3.53;;
27533;SDS011;14973;51.460;7.008;2023-07-29T02:10:00;8.55;;;3.67;;
27533;SDS011;14973;51.460;7.008;2023-07-29T02:12:25;10.32;;;3.35;;
27533;SDS011;14973;51.460;7.008;2023-07-29T02:14:51;5.15;;;3.30;;
27533;SDS011;14973;51.460;7.008;2023-07-29T02:17:16;8.68;;;3.30;;
27533;SDS011;14973;51.460;7.008;2023-07-29T02:19:42;4.93;;;3.00;;
27533;SDS011;14973;51.460;7.008;2023-07-29T02:22:07;9.75;;;3.00;;
27533;SDS011;14973;51.460;7.008;2023-07-29T02:24:33;7.60;;;3.50;;
27533;SDS011;14973;51.460;7.008;2023-07-29T02:26:59;6.63;;;2.95;;
27533;SDS011;14973;51.460;7.008;2023-07-29T02:29:24;5.53;;;2.88;;
27533;SDS011;14973;51.460;7.008;2023-07-29T02:31:50;5.32;;;3.20;;
27533;SDS011;14973;51.460;7.008;2023-07-29T02:34:16;5.55;;;2.75;;
27533;SDS011;14973;51.460;7.008;2023-07-29T02:36:41;4.05;;;3.08;;
27533;SDS011;14973;51.460;7.008;2023-07-29T02:39:07;5.05;;;3.08;;
27533;SDS011;14973;51.460;7.008;2023-07-29T02:41:33;4.30;;;3.47;;
27533;SDS011;14973;51.460;7.008;2023-07-29T02:43:58;6.35;;;2.97;;
27533;SDS011;14973;51.460;7.008;2023-07-29T02:46:24;8.40;;;3.67;;
27533;SDS011;14973;51.460;7.008;2023-07-29T02:48:50;9.27;;;3.03;;
27533;SDS011;14973;51.460;7.008;2023-07-29T02:51:16;5.30;;;3.33;;
27533;SDS011;14973;51.460;7.008;2023-07-29T02:53:41;8.80;;;4.30;;
27533;SDS011;14973;51.460;7.008;2023-07-29T02:56:07;5.00;;;3.67;;
27533;SDS011;14973;51.460;7.008;2023-07-29T02:58:34;9.38;;;4.15;;
27533;SDS011;14973;51.460;7.008;2023-07-29T03:01:02;11.40;;;3.47;;
27533;SDS011;14973;51.460;7.008;2023-07-29T03:03:31;7.10;;;4.25;;
27533;SDS011;14973;51.460;7.008;2023-07-29T03:06:01;6.05;;;4.10;;
27533;SDS011;14973;51.460;7.008;2023-07-29T03:08:27;4.50;;;3.42;;
27533;SDS011;14973;51.460;7.008;2023-07-29T03:10:53;8.30;;;3.85;;
27533;SDS011;14973;51.460;7.008;2023-07-29T03:13:20;13.27;;;6.10;;
27533;SDS011;14973;51.460;7.008;2023-07-29T03:15:45;8.35;;;3.83;;
27533;SDS011;14973;51.460;7.008;2023-07-29T03:18:11;8.15;;;4.05;;
27533;SDS011;14973;51.460;7.008;2023-07-29T03:20:36;7.35;;;4.15;;
27533;SDS011;14973;51.460;7.008;2023-07-29T03:23:02;11.23;;;4.32;;
27533;SDS011;14973;51.460;7.008;2023-07-29T03:25:27;6.07;;;4.40;;
27533;SDS011;14973;51.460;7.008;2023-07-29T03:27:54;10.00;;;5.93;;
27533;SDS011;14973;51.460;7.008;2023-07-29T03:30:20;9.73;;;4.63;;
27533;SDS011;14973;51.460;7.008;2023-07-29T03:32:47;10.98;;;4.70;;
27533;SDS011;14973;51.460;7.008;2023-07-29T03:35:15;7.30;;;4.10;;
27533;SDS011;14973;51.460;7.008;2023-07-29T03:37:40;8.55;;;4.40;;
27533;SDS011;14973;51.460;7.008;2023-07-29T03:40:06;5.90;;;4.38;;
27533;SDS011;14973;51.460;7.008;2023-07-29T03:42:34;7.45;;;4.53;;
27533;SDS011;14973;51.460;7.008;2023-07-29T03:45:00;6.93;;;4.95;;
27533;SDS011;14973;51.460;7.008;2023-07-29T03:47:25;6.13;;;4.78;;
27533;SDS011;14973;51.460;7.008;2023-07-29T03:49:51;9.35;;;5.43;;
27533;SDS011;14973;51.460;7.008;2023-07-29T03:52:16;6.15;;;5.00;;
27533;SDS011;14973;51.460;7.008;2023-07-29T03:54:42;7.53;;;4.80;;
27533;SDS011;14973;51.460;7.008;2023-07-29T03:57:07;9.10;;;5.43;;
27533;SDS011;14973;51.460;7.008;2023-07-29T03:59:33;9.35;;;5.38;;
27533;SDS011;14973;51.460;7.008;2023-07-29T04:01:58;10.32;;;5.82;;
27533;SDS011;14973;51.460;7.008;2023-07-29T04:04:24;8.32;;;5.88;;
27533;SDS011;14973;51.460;7.008;2023-07-29T04:06:50;9.18;;;5.85;;
27533;SDS011;14973;51.460;7.008;2023-07-29T04:09:15;7.40;;;6.22;;
27533;SDS011;14973;51.460;7.008;2023-07-29T04:11:41;7.53;;;6.07;;
27533;SDS011;14973;51.460;7.008;2023-07-29T04:14:06;9.38;;;5.88;;
27533;SDS011;14973;51.460;7.008;2023-07-29T04:16:32;14.82;;;6.38;;
27533;SDS011;14973;51.460;7.008;2023-07-29T04:18:57;7.75;;;5.93;;
27533;SDS011;14973;51.460;7.008;2023-07-29T04:21:23;11.95;;;6.50;;
27533;SDS011;14973;51.460;7.008;2023-07-29T04:23:48;12.30;;;6.13;;
27533;SDS011;14973;51.460;7.008;2023-07-29T04:26:14;7.95;;;5.72;;
27533;SDS011;14973;51.460;7.008;2023-07-29T04:28:40;8.93;;;5.90;;
27533;SDS011;14973;51.460;7.008;2023-07-29T04:31:05;8.98;;;5.07;;
27533;SDS011;14973;51.460;7.008;2023-07-29T04:33:31;11.13;;;5.22;;
27533;SDS011;14973;51.460;7.008;2023-07-29T04:35:56;6.78;;;5.05;;
27533;SDS011;14973;51.460;7.008;2023-07-29T04:38:23;7.07;;;4.50;;
27533;SDS011;14973;51.460;7.008;2023-07-29T04:40:52;7.43;;;4.55;;
27533;SDS011;14973;51.460;7.008;2023-07-29T04:43:18;12.60;;;5.10;;
27533;SDS011;14973;51.460;7.008;2023-07-29T04:45:44;7.53;;;5.03;;
27533;SDS011;14973;51.460;7.008;2023-07-29T04:48:09;11.18;;;5.45;;
27533;SDS011;14973;51.460;7.008;2023-07-29T04:50:35;11.18;;;5.05;;
27533;SDS011;14973;51.460;7.008;2023-07-29T04:53:00;9.05;;;4.60;;
27533;SDS011;14973;51.460;7.008;2023-07-29T04:55:26;7.55;;;4.97;;
27533;SDS011;14973;51.460;7.008;2023-07-29T04:57:51;14.68;;;5.88;;
27533;SDS011;14973;51.460;7.008;2023-07-29T05:00:17;8.35;;;5.97;;
27533;SDS011;14973;51.460;7.008;2023-07-29T05:02:43;12.05;;;6.32;;
27533;SDS011;14973;51.460;7.008;2023-07-29T05:05:08;8.73;;;6.47;;
27533;SDS011;14973;51.460;7.008;2023-07-29T05:07:34;12.82;;;7.45;;
27533;SDS011;14973;51.460;7.008;2023-07-29T05:09:59;11.68;;;8.60;;
27533;SDS011;14973;51.460;7.008;2023-07-29T05:12:25;12.40;;;8.57;;
27533;SDS011;14973;51.460;7.008;2023-07-29T05:14:50;14.07;;;10.40;;
27533;SDS011;14973;51.460;7.008;2023-07-29T05:17:16;16.35;;;10.98;;
27533;SDS011;14973;51.460;7.008;2023-07-29T05:19:42;17.25;;;10.15;;
27533;SDS011;14973;51.460;7.008;2023-07-29T05:22:07;19.77;;;10.98;;
27533;SDS011;14973;51.460;7.008;2023-07-29T05:24:33;17.55;;;10.93;;
27533;SDS011;14973;51.460;7.008;2023-07-29T05:26:58;14.60;;;9.68;;
27533;SDS011;14973;51.460;7.008;2023-07-29T05:29:24;12.90;;;9.23;;
27533;SDS011;14973;51.460;7.008;2023-07-29T05:31:49;12.13;;;8.75;;
27533;SDS011;14973;51.460;7.008;2023-07-29T05:34:15;15.90;;;8.25;;
27533;SDS011;14973;51.460;7.008;2023-07-29T05:36:40;13.38;;;9.00;;
27533;SDS011;14973;51.460;7.008;2023-07-29T05:39:06;13.95;;;9.18;;
27533;SDS011;14973;51.460;7.008;2023-07-29T05:41:32;14.40;;;9.10;;
27533;SDS011;14973;51.460;7.008;2023-07-29T05:43:58;15.23;;;8.85;;
27533;SDS011;14973;51.460;7.008;2023-07-29T05:46:23;13.15;;;8.40;;
27533;SDS011;14973;51.460;7.008;2023-07-29T05:48:49;13.85;;;8.48;;
27533;SDS011;14973;51.460;7.008;2023-07-29T05:51:14;10.85;;;7.65;;
27533;SDS011;14973;51.460;7.008;2023-07-29T05:53:40;8.20;;;6.65;;
27533;SDS011;14973;51.460;7.008;2023-07-29T05:56:05;8.32;;;5.97;;
27533;SDS011;14973;51.460;7.008;2023-07-29T05:58:31;9.55;;;4.55;;
27533;SDS011;14973;51.460;7.008;2023-07-29T06:00:57;8.07;;;4.70;;
27533;SDS011;14973;51.460;7.008;2023-07-29T06:03:23;7.20;;;4.72;;
27533;SDS011;14973;51.460;7.008;2023-07-29T06:05:49;5.75;;;4.70;;
27533;SDS011;14973;51.460;7.008;2023-07-29T06:08:14;10.18;;;4.38;;
27533;SDS011;14973;51.460;7.008;2023-07-29T06:10:40;8.52;;;4.93;;
27533;SDS011;14973;51.460;7.008;2023-07-29T06:13:06;15.98;;;9.00;;
27533;SDS011;14973;51.460;7.008;2023-07-29T06:15:31;11.30;;;6.25;;
27533;SDS011;14973;51.460;7.008;2023-07-29T06:17:57;6.28;;;4.28;;
27533;SDS011;14973;51.460;7.008;2023-07-29T06:20:23;8.40;;;4.18;;
27533;SDS011;14973;51.460;7.008;2023-07-29T06:22:48;11.20;;;3.65;;
27533;SDS011;14973;51.460;7.008;2023-07-29T06:25:14;37.22;;;20.90;;
27533;SDS011;14973;51.460;7.008;2023-07-29T06:27:39;6.75;;;3.20;;
27533;SDS011;14973;51.460;7.008;2023-07-29T06:30:05;6.45;;;2.88;;
27533;SDS011;14973;51.460;7.008;2023-07-29T06:32:31;5.00;;;2.47;;
27533;SDS011;14973;51.460;7.008;2023-07-29T06:34:57;6.18;;;3.08;;
27533;SDS011;14973;51.460;7.008;2023-07-29T06:37:22;4.13;;;2.55;;
27533;SDS011;14973;51.460;7.008;2023-07-29T06:39:48;9.93;;;2.70;;
27533;SDS011;14973;51.460;7.008;2023-07-29T06:42:14;6.68;;;3.42;;
27533;SDS011;14973;51.460;7.008;2023-07-29T06:44:39;13.55;;;7.10;;
27533;SDS011;14973;51.460;7.008;2023-07-29T06:47:05;9.73;;;3.80;;
27533;SDS011;14973;51.460;7.008;2023-07-29T06:49:31;5.43;;;3.00;;
27533;SDS011;14973;51.460;7.008;2023-07-29T06:51:56;4.25;;;2.30;;
27533;SDS011;14973;51.460;7.008;2023-07-29T06:54:25;8.88;;;2.13;;
27533;SDS011;14973;51.460;7.008;2023-07-29T06:56:51;3.75;;;2.35;;
27533;SDS011;14973;51.460;7.008;2023-07-29T06:59:17;3.45;;;1.92;;
27533;SDS011;14973;51.460;7.008;2023-07-29T07:01:43;8.48;;;2.17;;
27533;SDS011;14973;51.460;7.008;2023-07-29T07:04:09;5.53;;;1.73;;
27533;SDS011;14973;51.460;7.008;2023-07-29T07:06:34;5.15;;;2.05;;
27533;SDS011;14973;51.460;7.008;2023-07-29T07:09:00;4.47;;;1.90;;
27533;SDS011;14973;51.460;7.008;2023-07-29T07:11:25;4.00;;;2.05;;
27533;SDS011;14973;51.460;7.008;2023-07-29T07:13:51;5.20;;;2.10;;
27533;SDS011;14973;51.460;7.008;2023-07-29T07:16:16;5.25;;;1.80;;
27533;SDS011;14973;51.460;7.008;2023-07-29T07:18:42;3.05;;;1.77;;
27533;SDS011;14973;51.460;7.008;2023-07-29T07:21:08;4.45;;;1.58;;
27533;SDS011;14973;51.460;7.008;2023-07-29T07:23:33;5.30;;;1.45;;
27533;SDS011;14973;51.460;7.008;2023-07-29T07:25:59;3.60;;;1.42;;
27533;SDS011;14973;51.460;7.008;2023-07-29T07:28:25;4.15;;;1.73;;
27533;SDS011;14973;51.460;7.008;2023-07-29T07:30:50;2.92;;;1.48;;
27533;SDS011;14973;51.460;7.008;2023-07-29T07:33:16;1.98;;;1.52;;
27533;SDS011;14973;51.460;7.008;2023-07-29T07:35:43;2.00;;;1.40;;
27533;SDS011;14973;51.460;7.008;2023-07-29T07:38:08;4.05;;;1.50;;
27533;SDS011;14973;51.460;7.008;2023-07-29T07:40:35;5.20;;;1.52;;
27533;SDS011;14973;51.460;7.008;2023-07-29T07:43:01;3.55;;;2.00;;
27533;SDS011;14973;51.460;7.008;2023-07-29T07:45:27;4.90;;;1.50;;
27533;SDS011;14973;51.460;7.008;2023-07-29T07:47:52;3.63;;;1.65;;
27533;SDS011;14973;51.460;7.008;2023-07-29T07:50:18;6.80;;;1.35;;
27533;SDS011;14973;51.460;7.008;2023-07-29T07:52:44;1.98;;;1.08;;
27533;SDS011;14973;51.460;7.008;2023-07-29T07:55:10;2.88;;;1.40;;
27533;SDS011;14973;51.460;7.008;2023-07-29T07:57:35;2.75;;;1.20;;
27533;SDS011;14973;51.460;7.008;2023-07-29T08:00:01;1.42;;;1.00;;
27533;SDS011;14973;51.460;7.008;2023-07-29T08:02:27;2.25;;;0.95;;
27533;SDS011;14973;51.460;7.008;2023-07-29T08:04:52;2.47;;;0.98;;
27533;SDS011;14973;51.460;7.008;2023-07-29T08:07:18;1.83;;;0.80;;
27533;SDS011;14973;51.460;7.008;2023-07-29T08:09:43;1.38;;;0.90;;
27533;SDS011;14973;51.460;7.008;2023-07-29T08:12:09;1.88;;;1.08;;
27533;SDS011;14973;51.460;7.008;2023-07-29T08:14:34;2.15;;;1.15;;
27533;SDS011;14973;51.460;7.008;2023-07-29T08:17:00;3.88;;;1.30;;
27533;SDS011;14973;51.460;7.008;2023-07-29T08:19:26;2.63;;;1.30;;
27533;SDS011;14973;51.460;7.008;2023-07-29T08:21:52;3.78;;;1.60;;
27533;SDS011;14973;51.460;7.008;2023-07-29T08:24:17;3.92;;;1.70;;
27533;SDS011;14973;51.460;7.008;2023-07-29T08:26:43;2.03;;;1.25;;
27533;SDS011;14973;51.460;7.008;2023-07-29T08:29:09;1.92;;;1.27;;
27533;SDS011;14973;51.460;7.008;2023-07-29T08:31:34;4.88;;;1.25;;
27533;SDS011;14973;51.460;7.008;2023-07-29T08:34:00;2.03;;;1.00;;
27533;SDS011;14973;51.460;7.008;2023-07-29T08:36:26;1.70;;;0.90;;
27533;SDS011;14973;51.460;7.008;2023-07-29T08:38:51;2.72;;;0.80;;
27533;SDS011;14973;51.460;7.008;2023-07-29T08:41:29;1.60;;;0.93;;
27533;SDS011;14973;51.460;7.008;2023-07-29T08:44:03;3.17;;;1.02;;
27533;SDS011;14973;51.460;7.008;2023-07-29T08:46:29;2.50;;;1.00;;
27533;SDS011;14973;51.460;7.008;2023-07-29T08:48:55;3.72;;;1.10;;
27533;SDS011;14973;51.460;7.008;2023-07-29T08:51:21;1.38;;;1.10;;
27533;SDS011;14973;51.460;7.008;2023-07-29T08:53:49;3.47;;;1.50;;
27533;SDS011;14973;51.460;7.008;2023-07-29T08:56:15;3.38;;;1.52;;
27533;SDS011;14973;51.460;7.008;2023-07-29T08:58:40;2.60;;;1.33;;
27533;SDS011;14973;51.460;7.008;2023-07-29T09:01:06;10.98;;;1.67;;
27533;SDS011;14973;51.460;7.008;2023-07-29T09:03:32;7.95;;;1.65;;
27533;SDS011;14973;51.460;7.008;2023-07-29T09:05:58;6.10;;;1.70;;
27533;SDS011;14973;51.460;7.008;2023-07-29T09:08:25;7.20;;;1.13;;
27533;SDS011;14973;51.460;7.008;2023-07-29T09:10:51;5.32;;;1.75;;
27533;SDS011;14973;51.460;7.008;2023-07-29T09:13:17;2.70;;;1.48;;
27533;SDS011;14973;51.460;7.008;2023-07-29T09:15:42;1.98;;;1.45;;
27533;SDS011;14973;51.460;7.008;2023-07-29T09:18:14;8.90;;;1.63;;
27533;SDS011;14973;51.460;7.008;2023-07-29T09:20:41;2.30;;;1.25;;
27533;SDS011;14973;51.460;7.008;2023-07-29T09:23:08;7.15;;;1.20;;
27533;SDS011;14973;51.460;7.008;2023-07-29T09:25:35;3.75;;;1.10;;
27533;SDS011;14973;51.460;7.008;2023-07-29T09:28:07;2.80;;;1.10;;
27533;SDS011;14973;51.460;7.008;2023-07-29T09:30:34;2.83;;;1.00;;
27533;SDS011;14973;51.460;7.008;2023-07-29T09:33:00;4.00;;;0.98;;
27533;SDS011;14973;51.460;7.008;2023-07-29T09:35:27;2.45;;;1.00;;
27533;SDS011;14973;51.460;7.008;2023-07-29T09:37:55;2.17;;;1.15;;
27533;SDS011;14973;51.460;7.008;2023-07-29T09:40:20;5.45;;;1.40;;
27533;SDS011;14973;51.460;7.008;2023-07-29T09:42:49;2.17;;;1.20;;
27533;SDS011;14973;51.460;7.008;2023-07-29T09:45:22;5.55;;;1.63;;
27533;SDS011;14973;51.460;7.008;2023-07-29T09:47:49;2.67;;;1.58;;
27533;SDS011;14973;51.460;7.008;2023-07-29T09:50:15;3.00;;;1.50;;
27533;SDS011;14973;51.460;7.008;2023-07-29T09:52:42;1.80;;;1.15;;
27533;SDS011;14973;51.460;7.008;2023-07-29T09:55:09;3.55;;;1.25;;
27533;SDS011;14973;51.460;7.008;2023-07-29T09:57:37;3.70;;;1.42;;
27533;SDS011;14973;51.460;7.008;2023-07-29T10:00:04;3.45;;;1.38;;
27533;SDS011;14973;51.460;7.008;2023-07-29T10:02:36;3.13;;;1.40;;
27533;SDS011;14973;51.460;7.008;2023-07-29T10:05:05;5.70;;;1.30;;
27533;SDS011;14973;51.460;7.008;2023-07-29T10:07:33;2.38;;;1.10;;
27533;SDS011;14973;51.460;7.008;2023-07-29T10:09:59;3.90;;;1.40;;
27533;SDS011;14973;51.460;7.008;2023-07-29T10:12:29;2.50;;;1.42;;
27533;SDS011;14973;51.460;7.008;2023-07-29T10:14:58;6.10;;;1.38;;
27533;SDS011;14973;51.460;7.008;2023-07-29T10:17:25;4.38;;;1.33;;
27533;SDS011;14973;51.460;7.008;2023-07-29T10:19:52;2.17;;;1.20;;
27533;SDS011;14973;51.460;7.008;2023-07-29T10:22:20;4.63;;;1.75;;
27533;SDS011;14973;51.460;7.008;2023-07-29T10:24:49;2.20;;;1.30;;
27533;SDS011;14973;51.460;7.008;2023-07-29T10:27:17;3.17;;;1.23;;
27533;SDS011;14973;51.460;7.008;2023-07-29T10:29:44;5.70;;;1.83;;
27533;SDS011;14973;51.460;7.008;2023-07-29T10:32:11;4.50;;;2.10;;
27533;SDS011;14973;51.460;7.008;2023-07-29T10:34:37;5.50;;;2.13;;
27533;SDS011;14973;51.460;7.008;2023-07-29T10:37:04;7.85;;;1.83;;
27533;SDS011;14973;51.460;7.008;2023-07-29T10:39:39;3.17;;;1.40;;
27533;SDS011;14973;51.460;7.008;2023-07-29T10:42:06;4.35;;;1.55;;
27533;SDS011;14973;51.460;7.008;2023-07-29T10:47:17;4.07;;;2.03;;
27533;SDS011;14973;51.460;7.008;2023-07-29T10:49:58;6.63;;;1.95;;
27533;SDS011;14973;51.460;7.008;2023-07-29T10:52:28;9.60;;;1.75;;
27533;SDS011;14973;51.460;7.008;2023-07-29T10:55:01;4.07;;;1.92;;
27533;SDS011;14973;51.460;7.008;2023-07-29T10:57:35;3.75;;;1.50;;
27533;SDS011;14973;51.460;7.008;2023-07-29T11:00:04;2.40;;;1.30;;
27533;SDS011;14973;51.460;7.008;2023-07-29T11:04:56;4.68;;;1.80;;
27533;SDS011;14973;51.460;7.008;2023-07-29T11:07:23;3.80;;;1.50;;
27533;SDS011;14973;51.460;7.008;2023-07-29T11:09:57;2.65;;;1.52;;
27533;SDS011;14973;51.460;7.008;2023-07-29T11:12:37;4.80;;;1.65;;
27533;SDS011;14973;51.460;7.008;2023-07-29T11:17:49;5.88;;;1.60;;
27533;SDS011;14973;51.460;7.008;2023-07-29T11:20:17;1.58;;;1.25;;
27533;SDS011;14973;51.460;7.008;2023-07-29T11:22:43;2.25;;;1.38;;
27533;SDS011;14973;51.460;7.008;2023-07-29T11:25:10;2.40;;;1.30;;
27533;SDS011;14973;51.460;7.008;2023-07-29T11:27:38;6.13;;;1.60;;
27533;SDS011;14973;51.460;7.008;2023-07-29T11:30:05;4.07;;;1.35;;
27533;SDS011;14973;51.460;7.008;2023-07-29T11:32:35;5.00;;;1.60;;
27533;SDS011;14973;51.460;7.008;2023-07-29T11:35:02;4.00;;;1.70;;
27533;SDS011;14973;51.460;7.008;2023-07-29T11:37:33;5.72;;;1.40;;
27533;SDS011;14973;51.460;7.008;2023-07-29T11:39:59;4.50;;;1.50;;
27533;SDS011;14973;51.460;7.008;2023-07-29T11:42:26;5.60;;;1.30;;
27533;SDS011;14973;51.460;7.008;2023-07-29T11:44:52;2.65;;;1.35;;
27533;SDS011;14973;51.460;7.008;2023-07-29T11:47:18;3.28;;;1.30;;
27533;SDS011;14973;51.460;7.008;2023-07-29T11:49:44;2.72;;;1.50;;
27533;SDS011;14973;51.460;7.008;2023-07-29T11:52:10;2.60;;;1.50;;
27533;SDS011;14973;51.460;7.008;2023-07-29T11:54:38;5.55;;;1.55;;
27533;SDS011;14973;51.460;7.008;2023-07-29T11:57:06;2.78;;;1.48;;
27533;SDS011;14973;51.460;7.008;2023-07-29T11:59:33;3.53;;;1.35;;
27533;SDS011;14973;51.460;7.008;2023-07-29T12:02:00;3.67;;;1.42;;
27533;SDS011;14973;51.460;7.008;2023-07-29T12:04:27;2.42;;;1.30;;
27533;SDS011;14973;51.460;7.008;2023-07-29T12:06:54;3.70;;;1.60;;
27533;SDS011;14973;51.460;7.008;2023-07-29T12:09:20;5.63;;;1.60;;
27533;SDS011;14973;51.460;7.008;2023-07-29T12:11:46;3.45;;;1.70;;
27533;SDS011;14973;51.460;7.008;2023-07-29T12:14:11;10.18;;;2.35;;
27533;SDS011;14973;51.460;7.008;2023-07-29T12:16:41;2.25;;;1.60;;
27533;SDS011;14973;51.460;7.008;2023-07-29T12:19:07;5.18;;;1.60;;
27533;SDS011;14973;51.460;7.008;2023-07-29T12:21:33;1.38;;;1.27;;
27533;SDS011;14973;51.460;7.008;2023-07-29T12:23:58;4.60;;;1.58;;
27533;SDS011;14973;51.460;7.008;2023-07-29T12:26:27;6.07;;;1.58;;
27533;SDS011;14973;51.460;7.008;2023-07-29T12:28:53;3.28;;;1.50;;
27533;SDS011;14973;51.460;7.008;2023-07-29T12:31:19;2.30;;;1.77;;
27533;SDS011;14973;51.460;7.008;2023-07-29T12:33:44;3.80;;;1.17;;
27533;SDS011;14973;51.460;7.008;2023-07-29T12:36:10;3.60;;;1.60;;
27533;SDS011;14973;51.460;7.008;2023-07-29T12:38:35;5.15;;;1.60;;
27533;SDS011;14973;51.460;7.008;2023-07-29T12:41:01;2.67;;;1.50;;
27533;SDS011;14973;51.460;7.008;2023-07-29T12:43:26;5.88;;;2.35;;
27533;SDS011;14973;51.460;7.008;2023-07-29T12:45:53;2.72;;;1.58;;
27533;SDS011;14973;51.460;7.008;2023-07-29T12:48:19;3.75;;;1.45;;
27533;SDS011;14973;51.460;7.008;2023-07-29T12:50:45;3.67;;;1.63;;
27533;SDS011;14973;51.460;7.008;2023-07-29T12:53:11;3.20;;;1.58;;
27533;SDS011;14973;51.460;7.008;2023-07-29T12:55:36;5.63;;;2.20;;
27533;SDS011;14973;51.460;7.008;2023-07-29T12:58:02;2.28;;;1.60;;
27533;SDS011;14973;51.460;7.008;2023-07-29T13:00:28;4.60;;;1.70;;
27533;SDS011;14973;51.460;7.008;2023-07-29T13:02:54;3.60;;;1.80;;
27533;SDS011;14973;51.460;7.008;2023-07-29T13:05:19;3.55;;;1.88;;
27533;SDS011;14973;51.460;7.008;2023-07-29T13:07:45;3.28;;;1.55;;
27533;SDS011;14973;51.460;7.008;2023-07-29T13:10:11;3.92;;;1.30;;
27533;SDS011;14973;51.460;7.008;2023-07-29T13:12:38;7.13;;;1.80;;
27533;SDS011;14973;51.460;7.008;2023-07-29T13:15:03;7.38;;;1.85;;
27533;SDS011;14973;51.460;7.008;2023-07-29T13:17:30;3.80;;;1.90;;
27533;SDS011;14973;51.460;7.008;2023-07-29T13:19:55;3.17;;;1.90;;
27533;SDS011;14973;51.460;7.008;2023-07-29T13:22:21;4.22;;;2.00;;
27533;SDS011;14973;51.460;7.008;2023-07-29T13:24:46;5.57;;;1.85;;
27533;SDS011;14973;51.460;7.008;2023-07-29T13:27:12;6.95;;;1.73;;
27533;SDS011;14973;51.460;7.008;2023-07-29T13:29:38;2.45;;;1.80;;
27533;SDS011;14973;51.460;7.008;2023-07-29T13:32:04;6.93;;;1.77;;
27533;SDS011;14973;51.460;7.008;2023-07-29T13:34:30;6.50;;;2.50;;
27533;SDS011;14973;51.460;7.008;2023-07-29T13:36:56;4.07;;;1.92;;
27533;SDS011;14973;51.460;7.008;2023-07-29T13:39:22;7.15;;;1.98;;
27533;SDS011;14973;51.460;7.008;2023-07-29T13:41:47;3.65;;;1.90;;
27533;SDS011;14973;51.460;7.008;2023-07-29T13:44:13;4.28;;;2.28;;
27533;SDS011;14973;51.460;7.008;2023-07-29T13:46:38;3.65;;;2.03;;
27533;SDS011;14973;51.460;7.008;2023-07-29T13:49:04;3.17;;;1.88;;
27533;SDS011;14973;51.460;7.008;2023-07-29T13:51:29;5.35;;;2.38;;
27533;SDS011;14973;51.460;7.008;2023-07-29T13:53:55;5.03;;;2.00;;
27533;SDS011;14973;51.460;7.008;2023-07-29T13:56:21;2.55;;;1.92;;
27533;SDS011;14973;51.460;7.008;2023-07-29T13:58:47;12.57;;;1.75;;
27533;SDS011;14973;51.460;7.008;2023-07-29T14:01:12;6.88;;;2.00;;
27533;SDS011;14973;51.460;7.008;2023-07-29T14:03:38;4.75;;;1.85;;
27533;SDS011;14973;51.460;7.008;2023-07-29T14:06:04;7.75;;;2.53;;
27533;SDS011;14973;51.460;7.008;2023-07-29T14:08:29;8.55;;;3.30;;
27533;SDS011;14973;51.460;7.008;2023-07-29T14:10:55;12.70;;;3.33;;
27533;SDS011;14973;51.460;7.008;2023-07-29T14:13:20;10.15;;;3.63;;
27533;SDS011;14973;51.460;7.008;2023-07-29T14:15:46;11.23;;;3.38;;
27533;SDS011;14973;51.460;7.008;2023-07-29T14:18:12;7.95;;;3.70;;
27533;SDS011;14973;51.460;7.008;2023-07-29T14:20:37;7.50;;;2.92;;
27533;SDS011;14973;51.460;7.008;2023-07-29T14:23:03;5.18;;;2.30;;
27533;SDS011;14973;51.460;7.008;2023-07-29T14:25:28;5.40;;;2.17;;
27533;SDS011;14973;51.460;7.008;2023-07-29T14:27:54;6.22;;;2.30;;
27533;SDS011;14973;51.460;7.008;2023-07-29T14:30:20;4.95;;;2.15;;
27533;SDS011;14973;51.460;7.008;2023-07-29T14:32:46;6.28;;;1.73;;
27533;SDS011;14973;51.460;7.008;2023-07-29T14:35:11;3.45;;;1.52;;
27533;SDS011;14973;51.460;7.008;2023-07-29T14:37:37;5.13;;;1.55;;
27533;SDS011;14973;51.460;7.008;2023-07-29T14:40:03;3.45;;;1.52;;
27533;SDS011;14973;51.460;7.008;2023-07-29T14:42:29;3.20;;;2.03;;
27533;SDS011;14973;51.460;7.008;2023-07-29T14:44:55;4.15;;;1.85;;
27533;SDS011;14973;51.460;7.008;2023-07-29T14:47:21;4.20;;;1.60;;
27533;SDS011;14973;51.460;7.008;2023-07-29T14:49:46;4.95;;;1.80;;
27533;SDS011;14973;51.460;7.008;2023-07-29T14:52:12;3.15;;;1.50;;
27533;SDS011;14973;51.460;7.008;2023-07-29T14:54:37;4.35;;;1.80;;